Time;durP1;ratioP1;P1;durP2;ratioP2;P2;SDS_P1;SDS_P2;PMS_P1;PMS_P2;Temp;Humidity;BMP_temperature;BMP_pressure;BME280_temperature;BME280_humidity;BME280_pressure;Samples;Min_cycle;Max_cycle;Signal;HPM_P1;HPM_P2
2023/08/03 00:00:04;;;;;;;4.30;1.60;;;16.00;99.90;;;;;;5092602;28;20537;-69
2023/08/03 00:02:34;;;;;;;3.38;1.25;;;15.90;99.90;;;;;;5092490;28;20051;-70
2023/08/03 00:05:01;;;;;;;4.50;1.52;;;15.90;99.90;;;;;;5090985;28;20407;-70
2023/08/03 00:07:26;;;;;;;3.72;1.63;;;16.20;99.90;;;;;;5091152;28;20040;-70
2023/08/03 00:09:52;;;;;;;7.65;1.65;;;15.90;99.90;;;;;;5091492;28;20040;-70
2023/08/03 00:12:18;;;;;;;3.78;1.80;;;16.20;99.90;;;;;;5092776;28;20040;-70
2023/08/03 00:14:44;;;;;;;4.40;1.75;;;16.10;99.90;;;;;;5093382;28;20464;-70
2023/08/03 00:17:10;;;;;;;6.18;1.58;;;16.20;99.90;;;;;;5093157;28;20035;-70
2023/08/03 00:19:35;;;;;;;5.38;1.60;;;16.20;99.90;;;;;;5093476;28;20529;-70
2023/08/03 00:22:01;;;;;;;4.03;1.60;;;16.20;99.90;;;;;;5093057;28;20047;-70
2023/08/03 00:24:26;;;;;;;4.93;1.48;;;16.30;99.90;;;;;;5093257;28;20032;-70
2023/08/03 00:26:52;;;;;;;3.65;1.52;;;16.20;99.90;;;;;;5093049;28;20109;-70
2023/08/03 00:29:17;;;;;;;4.65;1.48;;;16.20;99.90;;;;;;5093338;28;20122;-69
2023/08/03 00:31:43;;;;;;;3.40;1.63;;;16.10;99.90;;;;;;5092671;28;20415;-69
2023/08/03 00:34:08;;;;;;;5.63;2.15;;;16.30;99.90;;;;;;5092045;28;20105;-70
2023/08/03 00:36:34;;;;;;;3.00;1.45;;;16.30;99.90;;;;;;5092199;28;20059;-69
2023/08/03 00:39:00;;;;;;;5.03;1.98;;;16.30;99.90;;;;;;5091821;28;20032;-70
2023/08/03 00:41:25;;;;;;;7.22;2.33;;;16.10;99.90;;;;;;5092075;28;20044;-70
2023/08/03 00:43:51;;;;;;;4.95;1.40;;;16.30;99.90;;;;;;5090803;28;20499;-70
2023/08/03 00:46:16;;;;;;;4.72;1.48;;;16.20;99.90;;;;;;5091794;28;20376;-70
2023/08/03 00:48:42;;;;;;;4.50;1.77;;;16.30;99.90;;;;;;5090451;28;20040;-70
2023/08/03 00:51:08;;;;;;;3.90;1.50;;;16.10;99.90;;;;;;5092053;28;20043;-70
2023/08/03 00:53:33;;;;;;;3.58;1.67;;;16.10;99.90;;;;;;5090733;28;20045;-70
2023/08/03 00:55:59;;;;;;;3.83;1.45;;;16.10;99.90;;;;;;5091916;28;20036;-70
2023/08/03 00:58:24;;;;;;;2.20;1.55;;;16.20;99.90;;;;;;5091462;28;20040;-70
2023/08/03 01:00:50;;;;;;;5.60;1.50;;;16.30;99.90;;;;;;5091731;28;20119;-70
2023/08/03 01:03:15;;;;;;;5.00;1.67;;;16.30;99.90;;;;;;5091693;28;20048;-70
2023/08/03 01:05:41;;;;;;;4.82;1.63;;;16.20;99.90;;;;;;5091494;28;20495;-70
2023/08/03 01:08:06;;;;;;;5.05;1.67;;;16.30;99.90;;;;;;5091281;28;20036;-70
2023/08/03 01:10:32;;;;;;;5.05;1.52;;;16.10;99.90;;;;;;5091754;28;20067;-70
2023/08/03 01:12:58;;;;;;;6.40;1.70;;;16.20;99.90;;;;;;5091761;28;20427;-70
2023/08/03 01:15:24;;;;;;;6.07;1.63;;;16.10;99.90;;;;;;5091463;28;20089;-70
2023/08/03 01:17:50;;;;;;;2.33;1.30;;;16.40;99.90;;;;;;5091270;28;20036;-70
2023/08/03 01:20:18;;;;;;;7.88;2.00;;;16.40;99.90;;;;;;5092374;28;20044;-70
2023/08/03 01:22:44;;;;;;;4.72;1.70;;;16.20;99.90;;;;;;5095796;28;20110;-70
2023/08/03 01:25:11;;;;;;;6.65;1.70;;;16.40;99.90;;;;;;5094413;28;20039;-70
2023/08/03 01:27:36;;;;;;;2.15;1.40;;;16.40;99.90;;;;;;5094116;28;20040;-70
2023/08/03 01:30:03;;;;;;;3.90;2.13;;;16.40;99.90;;;;;;5095409;28;20028;-70
2023/08/03 01:32:30;;;;;;;5.50;1.80;;;16.50;99.90;;;;;;5095278;28;20036;-70
2023/08/03 01:34:55;;;;;;;3.97;1.48;;;16.30;99.90;;;;;;5095253;28;20410;-70
2023/08/03 01:37:21;;;;;;;3.88;1.60;;;16.40;99.90;;;;;;5095125;28;20036;-70
2023/08/03 01:39:46;;;;;;;2.50;1.40;;;16.40;99.90;;;;;;5095392;28;20114;-70
2023/08/03 01:42:13;;;;;;;4.93;1.50;;;16.30;99.90;;;;;;5095294;28;20036;-70
2023/08/03 01:44:39;;;;;;;2.45;1.83;;;16.40;99.90;;;;;;5095064;28;20044;-70
2023/08/03 01:47:04;;;;;;;4.25;1.50;;;16.20;99.90;;;;;;5094761;28;20109;-70
2023/08/03 01:49:33;;;;;;;4.50;1.60;;;16.40;99.90;;;;;;5095241;28;20602;-70
2023/08/03 01:51:59;;;;;;;5.07;1.33;;;16.30;99.90;;;;;;5095127;28;20042;-70
2023/08/03 01:54:25;;;;;;;4.68;1.90;;;16.30;99.90;;;;;;5095031;28;20117;-70
2023/08/03 01:56:54;;;;;;;3.63;1.55;;;16.20;99.90;;;;;;5094794;28;20524;-70
2023/08/03 01:59:20;;;;;;;5.40;1.40;;;16.30;99.90;;;;;;5094892;28;20040;-70
2023/08/03 02:01:45;;;;;;;4.75;1.88;;;16.30;99.90;;;;;;5093504;28;20503;-70
2023/08/03 02:04:11;;;;;;;1.70;1.02;;;16.50;99.90;;;;;;5093611;28;20043;-70
2023/08/03 02:06:37;;;;;;;3.25;1.50;;;16.40;99.90;;;;;;5093154;28;20052;-70
2023/08/03 02:09:04;;;;;;;2.60;1.00;;;16.20;99.90;;;;;;5094594;28;20118;-70
2023/08/03 02:11:30;;;;;;;2.67;1.20;;;16.30;99.90;;;;;;5093694;28;20436;-70
2023/08/03 02:13:55;;;;;;;2.05;0.90;;;16.20;99.90;;;;;;5076468;28;20055;-70
2023/08/03 02:16:21;;;;;;;2.33;0.65;;;16.50;99.90;;;;;;5093183;28;20423;-70
2023/08/03 02:18:46;;;;;;;1.10;0.65;;;16.40;99.90;;;;;;5093095;28;20406;-70
2023/08/03 02:21:12;;;;;;;2.35;0.88;;;16.20;99.90;;;;;;5093205;28;20055;-70
2023/08/03 02:23:37;;;;;;;2.30;0.50;;;16.20;99.90;;;;;;5093100;28;20127;-70
2023/08/03 02:26:03;;;;;;;1.40;0.52;;;16.40;99.90;;;;;;5094413;28;20032;-70
2023/08/03 02:28:30;;;;;;;1.60;0.70;;;16.20;99.90;;;;;;5094048;28;20659;-70
2023/08/03 02:30:55;;;;;;;3.45;0.60;;;16.50;99.90;;;;;;5094128;28;20085;-70
2023/08/03 02:33:22;;;;;;;5.18;0.95;;;16.50;99.90;;;;;;5093414;28;20150;-70
2023/08/03 02:35:47;;;;;;;2.03;0.65;;;16.40;99.90;;;;;;5094236;28;20547;-70
2023/08/03 02:38:13;;;;;;;2.00;0.50;;;16.40;99.90;;;;;;5092613;28;20048;-70
2023/08/03 02:40:38;;;;;;;1.45;1.00;;;16.30;99.90;;;;;;5092856;28;20043;-70
2023/08/03 02:43:04;;;;;;;1.90;0.65;;;16.30;99.90;;;;;;5094037;28;20044;-70
2023/08/03 02:45:29;;;;;;;1.73;0.40;;;16.30;99.90;;;;;;5075923;28;20044;-70
2023/08/03 02:47:55;;;;;;;1.85;0.70;;;16.40;99.90;;;;;;5092411;28;20048;-70
2023/08/03 02:50:21;;;;;;;1.05;0.50;;;16.50;99.90;;;;;;5093906;28;20050;-70
2023/08/03 02:52:47;;;;;;;2.05;0.57;;;16.50;99.90;;;;;;5092591;28;20123;-70
2023/08/03 02:55:12;;;;;;;2.00;0.80;;;16.40;99.90;;;;;;5092529;28;20043;-70
2023/08/03 02:57:38;;;;;;;1.73;0.88;;;16.50;99.90;;;;;;5093484;28;20115;-70
2023/08/03 03:00:05;;;;;;;2.40;0.95;;;16.30;99.90;;;;;;5093610;28;20040;-70
2023/08/03 03:02:31;;;;;;;2.78;1.20;;;16.50;99.90;;;;;;5092467;28;20499;-70
2023/08/03 03:04:56;;;;;;;3.00;0.88;;;16.30;99.90;;;;;;5122001;22;20047;-71
2023/08/03 03:07:22;;;;;;;2.58;1.20;;;16.30;99.90;;;;;;5112909;28;20032;-71
2023/08/03 03:09:48;;;;;;;3.58;1.10;;;16.30;99.90;;;;;;5112529;28;20048;-71
2023/08/03 03:12:13;;;;;;;3.78;1.13;;;16.50;99.90;;;;;;5112709;28;20122;-73
2023/08/03 03:14:39;;;;;;;2.35;1.85;;;16.50;99.90;;;;;;5112351;28;20063;-73
2023/08/03 03:17:04;;;;;;;2.58;1.55;;;16.50;99.90;;;;;;5112474;28;20069;-73
2023/08/03 03:19:30;;;;;;;4.30;1.77;;;16.40;99.90;;;;;;5112467;28;20517;-73
2023/08/03 03:21:56;;;;;;;3.10;1.70;;;16.50;99.90;;;;;;5112707;28;20281;-73
2023/08/03 03:24:21;;;;;;;3.08;1.55;;;16.20;99.90;;;;;;5112336;28;20067;-73
2023/08/03 03:26:48;;;;;;;3.13;1.83;;;16.20;99.90;;;;;;5111953;28;20039;-73
2023/08/03 03:29:13;;;;;;;2.28;1.75;;;16.30;99.90;;;;;;5113169;28;20047;-73
2023/08/03 03:31:39;;;;;;;3.85;1.75;;;16.20;99.90;;;;;;5112179;28;20039;-73
2023/08/03 03:34:04;;;;;;;2.10;1.63;;;16.30;99.90;;;;;;5113524;28;20036;-73
2023/08/03 03:36:30;;;;;;;4.75;1.65;;;16.50;99.90;;;;;;5113201;28;20108;-73
2023/08/03 03:38:56;;;;;;;2.42;1.65;;;16.40;99.90;;;;;;5111900;28;20039;-73
2023/08/03 03:41:21;;;;;;;3.50;2.05;;;16.50;99.90;;;;;;5113243;28;20043;-73
2023/08/03 03:43:47;;;;;;;3.40;1.60;;;16.50;99.90;;;;;;5111970;28;20043;-73
2023/08/03 03:46:12;;;;;;;3.47;1.80;;;16.40;99.90;;;;;;5113168;28;20544;-73
2023/08/03 03:48:38;;;;;;;4.43;2.10;;;16.30;99.90;;;;;;5095002;28;20114;-73
2023/08/03 03:51:04;;;;;;;5.15;2.10;;;16.50;99.90;;;;;;5111725;28;20077;-73
2023/08/03 03:53:29;;;;;;;4.78;2.05;;;16.40;99.90;;;;;;5113063;28;20402;-72
2023/08/03 03:55:55;;;;;;;5.65;2.05;;;16.30;99.90;;;;;;5111880;28;20047;-72
2023/08/03 03:58:20;;;;;;;3.60;2.70;;;16.30;99.90;;;;;;5111477;28;20035;-73
2023/08/03 04:00:46;;;;;;;5.40;2.50;;;16.30;99.90;;;;;;5111395;28;20036;-73
2023/08/03 04:03:12;;;;;;;5.60;2.63;;;16.30;99.90;;;;;;5111570;28;20424;-73
2023/08/03 04:05:38;;;;;;;4.75;3.30;;;16.40;99.90;;;;;;5111432;28;20123;-73
2023/08/03 04:08:04;;;;;;;6.35;3.38;;;16.30;99.90;;;;;;5111276;28;20462;-73
2023/08/03 04:10:30;;;;;;;8.20;3.58;;;16.50;99.90;;;;;;5111471;28;20506;-73
2023/08/03 04:12:57;;;;;;;5.25;4.18;;;16.40;99.90;;;;;;5111338;28;20498;-73
2023/08/03 04:15:22;;;;;;;6.72;4.07;;;16.60;99.90;;;;;;5111056;28;20043;-73
2023/08/03 04:17:51;;;;;;;6.85;3.95;;;16.50;99.90;;;;;;5112350;28;20410;-73
2023/08/03 04:20:17;;;;;;;9.30;4.70;;;16.50;99.90;;;;;;5111287;28;20414;-73
2023/08/03 04:22:43;;;;;;;7.57;4.25;;;16.60;99.90;;;;;;5111090;28;20036;-73
2023/08/03 04:25:09;;;;;;;11.73;5.13;;;16.60;99.90;;;;;;5112370;28;20039;-73
2023/08/03 04:27:35;;;;;;;9.20;5.30;;;16.60;99.90;;;;;;5111111;28;20035;-73
2023/08/03 04:30:00;;;;;;;8.48;6.05;;;16.50;99.90;;;;;;5111251;28;20039;-73
2023/08/03 04:32:26;;;;;;;7.32;5.47;;;16.30;99.90;;;;;;5111447;28;20042;-73
2023/08/03 04:34:52;;;;;;;10.70;5.18;;;16.60;99.90;;;;;;5112456;28;20031;-73
2023/08/03 04:37:18;;;;;;;7.15;4.95;;;16.30;99.90;;;;;;5111040;28;20048;-74
2023/08/03 04:39:43;;;;;;;10.70;6.20;;;16.60;99.90;;;;;;5112330;28;20043;-73
2023/08/03 04:42:09;;;;;;;8.95;5.43;;;16.50;99.90;;;;;;5111186;28;20040;-73
2023/08/03 04:44:35;;;;;;;11.90;5.88;;;16.50;99.90;;;;;;5110898;28;20081;-73
2023/08/03 04:47:00;;;;;;;10.38;5.85;;;16.30;99.90;;;;;;5110946;28;20042;-73
2023/08/03 04:49:26;;;;;;;8.02;6.18;;;16.30;99.90;;;;;;5112262;28;20118;-73
2023/08/03 04:51:52;;;;;;;7.80;6.18;;;16.50;99.90;;;;;;5112173;28;20028;-73
2023/08/03 04:54:18;;;;;;;8.98;5.93;;;16.50;99.90;;;;;;5110725;28;20114;-73
2023/08/03 04:56:44;;;;;;;9.05;5.97;;;16.30;99.90;;;;;;5109928;28;20048;-73
2023/08/03 04:59:10;;;;;;;12.68;6.00;;;16.40;99.90;;;;;;5112237;28;20036;-73
2023/08/03 05:01:35;;;;;;;10.90;6.45;;;16.50;99.90;;;;;;5112071;28;20118;-73
2023/08/03 05:04:01;;;;;;;11.85;6.60;;;16.60;99.90;;;;;;5093583;28;20036;-73
2023/08/03 05:06:27;;;;;;;11.48;6.20;;;16.40;99.90;;;;;;5093753;28;20036;-73
2023/08/03 05:08:53;;;;;;;10.63;6.13;;;16.70;99.90;;;;;;5110489;28;20043;-73
2023/08/03 05:11:18;;;;;;;12.80;6.75;;;16.60;99.90;;;;;;5110594;28;20061;-73
2023/08/03 05:13:44;;;;;;;11.50;6.65;;;16.60;99.90;;;;;;5110706;28;20031;-73
2023/08/03 05:16:09;;;;;;;13.48;6.32;;;16.50;99.90;;;;;;5110418;28;20146;-73
2023/08/03 05:18:35;;;;;;;10.93;6.30;;;16.90;99.90;;;;;;5110590;28;20042;-73
2023/08/03 05:21:01;;;;;;;10.63;5.40;;;16.70;99.90;;;;;;5110648;28;20039;-73
2023/08/03 05:23:26;;;;;;;11.73;6.03;;;16.80;99.90;;;;;;5093618;28;20074;-73
2023/08/03 05:25:56;;;;;;;16.10;5.65;;;16.90;99.90;;;;;;5093730;28;20075;-73
2023/08/03 05:28:23;;;;;;;9.52;5.43;;;16.90;99.90;;;;;;5110305;28;20044;-73
2023/08/03 05:30:48;;;;;;;11.85;4.55;;;16.80;99.90;;;;;;5110451;28;20035;-73
2023/08/03 05:33:15;;;;;;;11.68;4.90;;;16.70;99.90;;;;;;5093575;28;20044;-73
2023/08/03 05:35:41;;;;;;;10.20;4.30;;;16.90;99.90;;;;;;5093501;28;20160;-74
2023/08/03 05:38:06;;;;;;;7.63;3.85;;;16.80;99.90;;;;;;5093259;28;20042;-73
2023/08/03 05:40:32;;;;;;;7.00;3.78;;;17.00;99.90;;;;;;5110432;28;20040;-73
2023/08/03 05:42:58;;;;;;;5.72;3.50;;;16.80;99.90;;;;;;5110709;28;20095;-73
2023/08/03 05:45:34;;;;;;;11.30;4.07;;;16.60;99.90;;;;;;5110238;28;20039;-73
2023/08/03 05:48:01;;;;;;;7.72;3.45;;;16.60;99.90;;;;;;5110126;28;20050;-73
2023/08/03 05:50:27;;;;;;;6.53;4.13;;;16.80;99.90;;;;;;5110310;28;20048;-73
2023/08/03 05:52:53;;;;;;;11.27;4.30;;;16.60;99.90;;;;;;5111572;28;20036;-73
2023/08/03 05:55:18;;;;;;;10.18;4.15;;;16.80;99.90;;;;;;5110202;28;20059;-73
2023/08/03 05:57:44;;;;;;;7.03;3.92;;;16.60;99.90;;;;;;5110023;28;20035;-73
2023/08/03 06:00:21;;;;;;;7.55;4.32;;;16.80;99.90;;;;;;5110341;28;20035;-73
2023/08/03 06:02:47;;;;;;;11.60;4.53;;;16.60;99.90;;;;;;5110312;28;20073;-73
2023/08/03 06:05:38;;;;;;;6.43;4.53;;;16.70;99.90;;;;;;5110004;28;20043;-73
2023/08/03 06:08:12;;;;;;;9.13;4.38;;;16.80;99.90;;;;;;5111832;28;20570;-73
2023/08/03 06:10:39;;;;;;;7.60;4.95;;;16.80;99.90;;;;;;5113758;28;20089;-73
2023/08/03 06:13:04;;;;;;;8.50;4.53;;;16.80;99.90;;;;;;5114042;28;20565;-73
2023/08/03 06:15:30;;;;;;;9.85;5.38;;;17.30;99.90;;;;;;5113620;28;20039;-73
2023/08/03 06:18:06;;;;;;;6.47;4.38;;;17.70;99.90;;;;;;5096353;28;20073;-73
2023/08/03 06:20:33;;;;;;;9.05;5.10;;;17.80;99.90;;;;;;5113741;28;20040;-73
2023/08/03 06:22:58;;;;;;;9.02;5.05;;;18.20;99.90;;;;;;5113591;28;20078;-73
2023/08/03 06:25:24;;;;;;;6.10;4.90;;;18.10;99.90;;;;;;5113389;28;20047;-74
2023/08/03 06:27:50;;;;;;;7.28;4.80;;;18.10;99.90;;;;;;5113512;28;20043;-74
2023/08/03 06:30:17;;;;;;;5.97;4.63;;;18.00;99.90;;;;;;5113420;28;20387;-74
2023/08/03 06:32:43;;;;;;;9.18;4.45;;;18.30;99.90;;;;;;5114648;28;20047;-74
2023/08/03 06:35:36;;;;;;;6.22;4.15;;;18.40;99.90;;;;;;5113288;28;20039;-74
2023/08/03 06:38:04;;;;;;;5.80;3.40;;;18.30;99.90;;;;;;5113182;28;20551;-74
2023/08/03 06:40:29;;;;;;;7.15;3.72;;;18.20;99.90;;;;;;5113242;28;20054;-74
2023/08/03 06:42:55;;;;;;;5.05;3.63;;;18.00;99.90;;;;;;5096127;28;20039;-74
2023/08/03 06:45:21;;;;;;;6.65;3.67;;;17.90;99.90;;;;;;5113057;28;20046;-74
2023/08/03 06:47:48;;;;;;;5.80;2.95;;;17.80;99.90;;;;;;5112824;28;20039;-73
2023/08/03 06:50:13;;;;;;;6.75;3.00;;;17.70;99.90;;;;;;5113155;28;20039;-74
2023/08/03 06:52:39;;;;;;;4.18;3.17;;;17.90;99.90;;;;;;5113252;28;20039;-74
2023/08/03 06:55:05;;;;;;;6.78;3.00;;;18.30;99.90;;;;;;5113167;28;20035;-73
2023/08/03 06:57:30;;;;;;;4.97;2.40;;;18.60;99.90;;;;;;5112528;28;20122;-74
2023/08/03 06:59:57;;;;;;;4.28;2.90;;;18.80;99.90;;;;;;5113084;28;20035;-73
2023/08/03 07:02:23;;;;;;;6.13;2.70;;;19.10;99.90;;;;;;5112837;28;20075;-73
2023/08/03 07:04:48;;;;;;;4.38;2.50;;;19.10;99.90;;;;;;5112862;28;20461;-74
2023/08/03 07:07:14;;;;;;;4.10;2.90;;;19.30;99.90;;;;;;5112400;28;20126;-74
2023/08/03 07:09:40;;;;;;;4.25;2.67;;;19.20;99.90;;;;;;5112650;28;20040;-73
2023/08/03 07:12:11;;;;;;;3.17;1.88;;;19.00;99.90;;;;;;5112809;28;20043;-73
2023/08/03 07:14:37;;;;;;;4.63;2.08;;;19.00;99.90;;;;;;5112461;28;20039;-74
2023/08/03 07:17:02;;;;;;;4.47;2.10;;;18.70;99.90;;;;;;5112145;28;20105;-74
2023/08/03 07:19:28;;;;;;;3.30;2.30;;;18.60;99.90;;;;;;5112009;28;20047;-74
2023/08/03 07:21:53;;;;;;;4.65;2.35;;;18.60;99.90;;;;;;5101676;28;20127;-74
2023/08/03 07:24:20;;;;;;;2.20;2.00;;;18.40;99.90;;;;;;5091943;28;20080;-74
2023/08/03 07:26:48;;;;;;;2.50;2.00;;;18.70;99.90;;;;;;5091595;28;20044;-74
2023/08/03 07:29:13;;;;;;;4.20;2.05;;;18.90;99.90;;;;;;5091984;28;20097;-73
2023/08/03 07:31:39;;;;;;;2.95;1.75;;;19.00;99.90;;;;;;5092196;28;20071;-74
2023/08/03 07:34:05;;;;;;;4.35;1.67;;;19.00;99.90;;;;;;5091709;28;20039;-73
2023/08/03 07:36:30;;;;;;;1.85;1.52;;;19.30;99.90;;;;;;5091572;28;20059;-73
2023/08/03 07:38:56;;;;;;;1.60;1.23;;;19.60;99.90;;;;;;5091449;28;20104;-74
2023/08/03 07:41:21;;;;;;;1.38;1.13;;;19.80;99.90;;;;;;5091815;28;20051;-74
2023/08/03 07:43:48;;;;;;;1.58;1.10;;;20.20;99.90;;;;;;5074553;28;20044;-73
2023/08/03 07:46:13;;;;;;;1.33;1.15;;;20.40;99.90;;;;;;5091329;28;20051;-73
2023/08/03 07:48:39;;;;;;;1.33;1.13;;;20.40;99.90;;;;;;5091563;28;20036;-73
2023/08/03 07:51:15;;;;;;;2.60;1.35;;;20.30;99.90;;;;;;5091411;28;20040;-73
2023/08/03 07:53:41;;;;;;;4.68;1.10;;;20.40;99.90;;;;;;5091569;28;20040;-73
2023/08/03 07:56:17;;;;;;;1.88;0.90;;;20.40;99.90;;;;;;5091229;28;20031;-73
2023/08/03 07:58:44;;;;;;;4.63;1.20;;;20.70;99.90;;;;;;5091183;28;20040;-73
2023/08/03 08:01:10;;;;;;;1.95;1.10;;;20.70;99.90;;;;;;5091266;28;20075;-74
2023/08/03 08:03:37;;;;;;;4.57;1.92;;;21.00;99.90;;;;;;5093433;28;20075;-74
2023/08/03 08:06:11;;;;;;;2.20;1.30;;;20.70;99.90;;;;;;5108756;28;20044;-74
2023/08/03 08:08:37;;;;;;;2.97;1.08;;;20.80;99.90;;;;;;5111322;28;20036;-74
2023/08/03 08:11:03;;;;;;;5.03;1.20;;;20.80;99.90;;;;;;5111378;28;20085;-74
2023/08/03 08:13:29;;;;;;;4.18;1.00;;;20.80;99.90;;;;;;5111507;28;20073;-74
2023/08/03 08:16:05;;;;;;;3.70;0.93;;;20.50;99.90;;;;;;5111519;28;20031;-74
2023/08/03 08:18:32;;;;;;;2.50;0.90;;;20.50;99.90;;;;;;5111027;28;20036;-74
2023/08/03 08:20:59;;;;;;;1.27;0.70;;;20.30;99.90;;;;;;5111226;28;20039;-74
2023/08/03 08:23:25;;;;;;;1.65;0.80;;;20.30;99.90;;;;;;5094422;28;20593;-74
2023/08/03 08:25:51;;;;;;;1.92;0.80;;;20.50;99.90;;;;;;5111251;28;20127;-74
2023/08/03 08:28:17;;;;;;;1.88;0.75;;;21.00;99.90;;;;;;5110852;28;20491;-74
2023/08/03 08:30:44;;;;;;;1.25;0.68;;;21.10;99.90;;;;;;5110263;28;20039;-74
2023/08/03 08:33:10;;;;;;;1.95;0.80;;;21.30;99.90;;;;;;5111093;28;20518;-74
2023/08/03 08:35:35;;;;;;;2.58;0.70;;;21.40;99.90;;;;;;5111215;28;20036;-74
2023/08/03 08:38:02;;;;;;;3.13;1.02;;;21.60;99.90;;;;;;5110795;28;20464;-74
2023/08/03 08:40:28;;;;;;;7.60;0.88;;;21.70;99.90;;;;;;5111032;28;20043;-74
2023/08/03 08:42:55;;;;;;;3.45;1.55;;;21.80;99.90;;;;;;5110918;28;20407;-74
2023/08/03 08:45:20;;;;;;;2.97;0.60;;;22.20;99.90;;;;;;5093942;28;20043;-74
2023/08/03 08:47:46;;;;;;;1.58;0.60;;;21.80;99.90;;;;;;5111808;28;20043;-74
2023/08/03 08:50:14;;;;;;;3.95;1.10;;;21.60;99.90;;;;;;5101819;28;20040;-74
2023/08/03 08:52:44;;;;;;;5.72;1.25;;;20.60;99.90;;;;;;5101025;28;20036;-74
2023/08/03 08:55:14;;;;;;;4.40;1.30;;;20.80;99.90;;;;;;5101534;28;20035;-74
2023/08/03 08:57:40;;;;;;;3.58;0.80;;;20.30;99.90;;;;;;5098041;28;20043;-74
2023/08/03 09:00:06;;;;;;;3.03;0.98;;;20.10;99.90;;;;;;5099261;28;20028;-74
2023/08/03 09:02:32;;;;;;;3.17;0.90;;;19.70;99.90;;;;;;5103917;28;20580;-74
2023/08/03 09:05:18;;;;;;;2.13;0.60;;;19.30;99.90;;;;;;5129072;22;20123;-72
2023/08/03 09:07:44;;;;;;;2.55;0.70;;;19.50;99.90;;;;;;5084327;28;20089;-72
2023/08/03 09:10:11;;;;;;;3.22;0.80;;;19.90;99.90;;;;;;5091672;28;20043;-71
2023/08/03 09:12:38;;;;;;;2.47;1.30;;;20.30;99.90;;;;;;5091609;28;20495;-71
2023/08/03 09:15:05;;;;;;;2.35;0.80;;;20.70;99.90;;;;;;5090610;28;20454;-72
2023/08/03 09:17:31;;;;;;;3.10;0.70;;;21.20;99.90;;;;;;5091291;28;20036;-72
2023/08/03 09:19:57;;;;;;;5.82;1.67;;;20.50;99.90;;;;;;5090486;28;20518;-72
2023/08/03 09:22:25;;;;;;;3.00;0.95;;;20.70;99.90;;;;;;5090099;28;20051;-71
2023/08/03 09:25:08;;;;;;;2.83;0.80;;;20.80;99.90;;;;;;5090243;28;20085;-72
2023/08/03 09:27:36;;;;;;;2.63;0.63;;;20.30;99.90;;;;;;5090806;28;20032;-73
2023/08/03 09:30:03;;;;;;;5.28;0.90;;;20.60;99.90;;;;;;5089845;28;20511;-72
2023/08/03 09:32:35;;;;;;;4.47;0.95;;;20.90;99.90;;;;;;5091075;28;20070;-73
2023/08/03 09:35:02;;;;;;;4.87;0.87;;;20.90;99.90;;;;;;5090026;28;20119;-72
2023/08/03 09:37:36;;;;;;;2.40;0.90;;;20.60;99.90;;;;;;5091182;28;20285;-72
2023/08/03 09:40:05;;;;;;;2.47;0.90;;;20.00;99.90;;;;;;5091447;28;20032;-72
2023/08/03 09:42:31;;;;;;;5.20;1.77;;;19.60;99.90;;;;;;5093774;28;20495;-72
2023/08/03 09:45:01;;;;;;;4.55;1.63;;;19.60;99.90;;;;;;5095160;28;20515;-72
2023/08/03 09:47:27;;;;;;;3.85;1.38;;;19.90;99.90;;;;;;5095070;28;20083;-72
2023/08/03 09:49:53;;;;;;;4.57;1.38;;;20.00;99.90;;;;;;5095101;28;20082;-72
2023/08/03 09:52:28;;;;;;;5.15;1.60;;;20.10;99.90;;;;;;5093842;28;20051;-72
2023/08/03 09:55:13;;;;;;;3.45;1.33;;;21.00;99.90;;;;;;5093781;28;20044;-72
2023/08/03 09:57:58;;;;;;;5.15;1.70;;;21.20;99.90;;;;;;5094749;28;20491;-72
2023/08/03 10:00:25;;;;;;;4.78;1.30;;;21.40;99.90;;;;;;5095372;28;20039;-72
2023/08/03 10:03:12;;;;;;;5.20;1.20;;;21.00;99.90;;;;;;5094900;28;20036;-73
2023/08/03 10:05:50;;;;;;;5.47;1.20;;;21.10;99.90;;;;;;5093361;28;20036;-72
2023/08/03 10:08:44;;;;;;;3.00;1.20;;;20.90;99.90;;;;;;5094642;28;20499;-72
2023/08/03 10:11:11;;;;;;;4.32;1.52;;;20.70;99.90;;;;;;5093629;28;20043;-72
2023/08/03 10:13:45;;;;;;;4.32;1.55;;;20.50;99.90;;;;;;5094694;28;20036;-73
2023/08/03 10:16:11;;;;;;;3.08;1.27;;;20.60;99.90;;;;;;5093605;28;20035;-72
2023/08/03 10:18:38;;;;;;;3.10;1.48;;;20.90;99.90;;;;;;5094818;28;20040;-73
2023/08/03 10:21:04;;;;;;;7.05;2.00;;;21.50;99.90;;;;;;5093633;28;20396;-72
2023/08/03 10:23:29;;;;;;;6.95;1.42;;;21.30;99.90;;;;;;5094889;28;20484;-72
2023/08/03 10:25:56;;;;;;;3.85;1.25;;;21.80;99.90;;;;;;5094799;28;20071;-73
2023/08/03 10:28:26;;;;;;;4.82;1.35;;;21.70;99.90;;;;;;5094447;28;20079;-73
2023/08/03 10:31:02;;;;;;;5.63;1.70;;;21.80;99.90;;;;;;5094619;28;20043;-73
2023/08/03 10:33:46;;;;;;;4.07;1.85;;;22.00;99.90;;;;;;5094681;28;20058;-73
2023/08/03 10:36:38;;;;;;;2.92;1.30;;;21.90;99.90;;;;;;5093338;28;20079;-73
2023/08/03 10:39:09;;;;;;;5.35;1.40;;;22.20;99.90;;;;;;5094214;28;20044;-73
2023/08/03 10:41:42;;;;;;;7.20;1.35;;;21.80;99.90;;;;;;5094131;28;20566;-73
2023/08/03 10:44:12;;;;;;;3.75;1.40;;;21.60;99.90;;;;;;5094185;28;20044;-73
2023/08/03 10:46:40;;;;;;;5.00;1.50;;;21.30;99.90;;;;;;5093943;28;20059;-73
2023/08/03 10:49:18;;;;;;;4.57;1.75;;;21.50;99.90;;;;;;5075534;28;20126;-73
2023/08/03 10:51:50;;;;;;;3.45;1.10;;;21.30;99.90;;;;;;5092876;28;20041;-73
2023/08/03 10:54:20;;;;;;;6.60;1.70;;;21.30;99.90;;;;;;5093123;28;20125;-73
2023/08/03 10:57:25;;;;;;;4.80;1.80;;;21.10;99.90;;;;;;5093585;28;20044;-73
2023/08/03 10:59:54;;;;;;;6.78;1.92;;;20.50;99.90;;;;;;5092773;28;20085;-73
2023/08/03 11:02:28;;;;;;;8.02;2.35;;;20.20;99.90;;;;;;5093884;28;20047;-73
2023/08/03 11:05:02;;;;;;;8.85;2.30;;;20.50;99.90;;;;;;5093732;28;20076;-73
2023/08/03 11:07:36;;;;;;;6.88;2.10;;;19.20;99.90;;;;;;5093473;28;20044;-73
2023/08/03 11:10:04;;;;;;;7.68;2.65;;;19.50;99.90;;;;;;5092302;28;20036;-73
2023/08/03 11:12:30;;;;;;;6.78;2.65;;;18.80;99.90;;;;;;5093596;28;20510;-74
2023/08/03 11:14:56;;;;;;;7.63;2.95;;;18.90;99.90;;;;;;5093605;28;20032;-74
2023/08/03 11:17:27;;;;;;;8.00;2.63;;;19.40;99.90;;;;;;5093263;28;20054;-74
2023/08/03 11:19:54;;;;;;;8.48;2.58;;;19.10;99.90;;;;;;5093533;28;20177;-74
2023/08/03 11:22:23;;;;;;;4.75;2.70;;;19.00;99.90;;;;;;5093310;28;20085;-74
2023/08/03 11:24:54;;;;;;;8.07;2.80;;;19.40;99.90;;;;;;5092284;28;20128;-74
2023/08/03 11:27:21;;;;;;;9.40;3.92;;;19.30;99.90;;;;;;5093172;28;20101;-74
2023/08/03 11:29:47;;;;;;;7.97;3.30;;;19.20;99.90;;;;;;5093335;28;20162;-73
2023/08/03 11:32:21;;;;;;;5.88;2.83;;;19.00;99.90;;;;;;5093191;28;20032;-74
2023/08/03 11:34:47;;;;;;;7.15;2.75;;;19.00;99.90;;;;;;5091785;28;20035;-73
2023/08/03 11:37:13;;;;;;;7.68;3.50;;;19.00;99.90;;;;;;5092922;28;20093;-73
2023/08/03 11:39:38;;;;;;;10.77;3.35;;;19.10;99.90;;;;;;5093183;28;20436;-74
2023/08/03 11:42:06;;;;;;;7.80;3.30;;;19.80;99.90;;;;;;5074787;28;20097;-73
2023/08/03 11:44:38;;;;;;;9.35;3.88;;;19.60;99.90;;;;;;5092975;28;20119;-73
2023/08/03 11:47:05;;;;;;;6.68;2.20;;;19.60;99.90;;;;;;5091417;28;20036;-73
2023/08/03 11:49:31;;;;;;;5.22;1.60;;;20.20;99.90;;;;;;5091717;28;20123;-73
2023/08/03 11:51:59;;;;;;;5.75;1.40;;;19.70;99.90;;;;;;5091499;28;20047;-73
2023/08/03 11:54:28;;;;;;;3.38;2.20;;;20.30;99.90;;;;;;5091703;28;20035;-73
2023/08/03 11:56:54;;;;;;;4.07;1.23;;;19.60;99.90;;;;;;5091091;28;20044;-73
2023/08/03 11:59:20;;;;;;;4.80;1.30;;;20.00;99.90;;;;;;5074447;28;20040;-73
2023/08/03 12:01:47;;;;;;;4.35;1.10;;;20.10;99.90;;;;;;5091244;28;20040;-73
2023/08/03 12:04:13;;;;;;;4.40;1.25;;;19.30;99.90;;;;;;5091175;28;20040;-73
2023/08/03 12:06:47;;;;;;;7.15;1.13;;;20.10;99.90;;;;;;5090853;28;20526;-73
2023/08/03 12:09:21;;;;;;;2.95;1.00;;;20.10;99.90;;;;;;5074389;28;20044;-74
2023/08/03 12:11:47;;;;;;;4.75;1.27;;;19.70;99.90;;;;;;5091149;28;20040;-73
2023/08/03 12:14:12;;;;;;;3.08;1.45;;;20.40;99.90;;;;;;5091085;28;20044;-73
2023/08/03 12:16:39;;;;;;;3.28;1.30;;;20.10;99.90;;;;;;5090831;28;20044;-73
2023/08/03 12:19:08;;;;;;;4.97;1.23;;;19.90;99.90;;;;;;5090836;28;20032;-73
2023/08/03 12:21:37;;;;;;;2.63;1.05;;;20.20;99.90;;;;;;5090957;28;20105;-73
2023/08/03 12:24:04;;;;;;;1.92;0.80;;;20.10;99.90;;;;;;5091129;28;20396;-73
2023/08/03 12:26:30;;;;;;;5.13;1.10;;;20.30;99.90;;;;;;5090713;28;20036;-73
2023/08/03 12:28:56;;;;;;;4.28;1.20;;;20.60;99.90;;;;;;5091929;28;20054;-73
2023/08/03 12:31:22;;;;;;;1.90;1.13;;;20.00;99.90;;;;;;5091954;28;20467;-73
2023/08/03 12:33:48;;;;;;;2.47;1.20;;;20.10;99.90;;;;;;5092021;28;20066;-73
2023/08/03 12:36:15;;;;;;;2.33;1.30;;;20.10;99.90;;;;;;5092005;28;20039;-73
2023/08/03 12:38:40;;;;;;;2.40;1.42;;;20.30;99.90;;;;;;5091943;28;20075;-73
2023/08/03 12:41:06;;;;;;;8.07;2.10;;;20.60;99.90;;;;;;5090759;28;20079;-73
2023/08/03 12:43:32;;;;;;;4.88;1.88;;;20.40;99.90;;;;;;5091913;28;20123;-73
2023/08/03 12:45:59;;;;;;;5.40;1.75;;;20.40;99.90;;;;;;5092021;28;20040;-73